Calamonte, Spain
Current Conditions -  °F | °C
As of 3:00 PM on Saturday 20 Dec 2014 (Local Time) from LEBZ Reporting Station
Overcast Overcast  
Wind Chill: 39°   Ceiling: 500
Heat Index: 43°   Visibility: 6mi
Dew Point: 43°   Wind: 6mph
Humidity: 100%   Direction: 80°E
Pressure: 30.5"   Gusts: NA
Location:  38.89°N, 6.39°W
Report Text: LEBZ 201400Z 08005KT 030V150 9999 OVC005 06/06 Q1033
Loading
Personal Weather Stations






























Interactive Weather Map New forecast layout! Learn more

10-Day Weather Forecast

Advertisements
Track Severe Weather on mobile